Aviation Digital Data Service (ADDS)

Output produced by METARs form (1026 UTC 16 August 2018)
found at http://aviationweather.gov/adds/metars/
 
KHDC 161015Z AUTO 00000KT 23/23 A3005 RMK AO2 PWINO